sensor_id;sensor_type;location;lat;lon;timestamp;pressure;altitude;pressure_sealevel;temperature;humidity
24422;BME280;12600;53.326;-6.298;2022-11-20T00:00:45;100103.41;;;9.87;87.84
24422;BME280;12600;53.326;-6.298;2022-11-20T00:03:35;100100.50;;;9.84;87.67
24422;BME280;12600;53.326;-6.298;2022-11-20T00:06:26;100106.41;;;9.77;87.80
24422;BME280;12600;53.326;-6.298;2022-11-20T00:09:17;100103.69;;;9.86;87.44
24422;BME280;12600;53.326;-6.298;2022-11-20T00:12:07;100098.88;;;9.74;87.31
24422;BME280;12600;53.326;-6.298;2022-11-20T00:14:56;100123.28;;;9.79;87.22
24422;BME280;12600;53.326;-6.298;2022-11-20T00:17:46;100126.78;;;9.71;87.19
24422;BME280;12600;53.326;-6.298;2022-11-20T00:20:35;100121.03;;;9.81;86.76
24422;BME280;12600;53.326;-6.298;2022-11-20T00:23:25;100113.81;;;9.85;86.15
24422;BME280;12600;53.326;-6.298;2022-11-20T00:26:18;100109.56;;;9.62;86.76
24422;BME280;12600;53.326;-6.298;2022-11-20T00:29:09;100120.50;;;9.70;86.36
24422;BME280;12600;53.326;-6.298;2022-11-20T00:31:58;100127.41;;;9.68;86.52
24422;BME280;12600;53.326;-6.298;2022-11-20T00:34:48;100124.34;;;9.69;86.39
24422;BME280;12600;53.326;-6.298;2022-11-20T00:37:37;100126.75;;;9.62;86.46
24422;BME280;12600;53.326;-6.298;2022-11-20T00:40:27;100128.66;;;9.62;86.43
24422;BME280;12600;53.326;-6.298;2022-11-20T00:43:17;100136.38;;;9.60;86.17
24422;BME280;12600;53.326;-6.298;2022-11-20T00:46:09;100124.63;;;9.50;86.04
24422;BME280;12600;53.326;-6.298;2022-11-20T00:48:58;100146.44;;;9.50;86.17
24422;BME280;12600;53.326;-6.298;2022-11-20T00:51:48;100124.28;;;9.43;86.01
24422;BME280;12600;53.326;-6.298;2022-11-20T00:54:37;100147.06;;;9.47;86.25
24422;BME280;12600;53.326;-6.298;2022-11-20T00:57:27;100148.69;;;9.48;86.21
24422;BME280;12600;53.326;-6.298;2022-11-20T01:00:18;100147.56;;;9.49;85.59
24422;BME280;12600;53.326;-6.298;2022-11-20T01:03:07;100145.63;;;9.50;85.36
24422;BME280;12600;53.326;-6.298;2022-11-20T01:06:00;100153.34;;;9.48;84.85
24422;BME280;12600;53.326;-6.298;2022-11-20T01:08:52;100157.66;;;9.49;84.71
24422;BME280;12600;53.326;-6.298;2022-11-20T01:11:44;100151.72;;;9.47;85.09
24422;BME280;12600;53.326;-6.298;2022-11-20T01:14:33;100150.28;;;9.49;84.87
24422;BME280;12600;53.326;-6.298;2022-11-20T01:17:24;100140.03;;;9.46;85.26
24422;BME280;12600;53.326;-6.298;2022-11-20T01:20:14;100144.34;;;9.47;85.28
24422;BME280;12600;53.326;-6.298;2022-11-20T01:23:03;100142.09;;;9.49;85.10
24422;BME280;12600;53.326;-6.298;2022-11-20T01:25:53;100126.06;;;9.48;84.94
24422;BME280;12600;53.326;-6.298;2022-11-20T01:28:42;100137.78;;;9.48;84.66
24422;BME280;12600;53.326;-6.298;2022-11-20T01:31:34;100123.59;;;9.38;84.99
24422;BME280;12600;53.326;-6.298;2022-11-20T01:34:25;100148.84;;;9.52;84.35
24422;BME280;12600;53.326;-6.298;2022-11-20T01:37:15;100151.41;;;9.48;84.61
24422;BME280;12600;53.326;-6.298;2022-11-20T01:40:06;100148.31;;;9.41;84.49
24422;BME280;12600;53.326;-6.298;2022-11-20T01:43:09;100145.13;;;9.39;84.45
24422;BME280;12600;53.326;-6.298;2022-11-20T01:46:14;100148.28;;;9.33;84.58
24422;BME280;12600;53.326;-6.298;2022-11-20T01:49:10;100153.41;;;9.34;84.42
24422;BME280;12600;53.326;-6.298;2022-11-20T01:52:05;100144.44;;;9.34;84.62
24422;BME280;12600;53.326;-6.298;2022-11-20T01:55:01;100160.59;;;9.30;84.52
24422;BME280;12600;53.326;-6.298;2022-11-20T01:57:53;100147.72;;;9.22;84.65
24422;BME280;12600;53.326;-6.298;2022-11-20T02:00:43;100163.97;;;9.27;84.47
24422;BME280;12600;53.326;-6.298;2022-11-20T02:03:32;100155.28;;;9.25;84.56
24422;BME280;12600;53.326;-6.298;2022-11-20T02:06:26;100154.97;;;9.27;84.26
24422;BME280;12600;53.326;-6.298;2022-11-20T02:09:18;100160.25;;;9.23;84.35
24422;BME280;12600;53.326;-6.298;2022-11-20T02:12:08;100130.03;;;9.11;84.26
24422;BME280;12600;53.326;-6.298;2022-11-20T02:15:18;100163.03;;;9.32;83.98
24422;BME280;12600;53.326;-6.298;2022-11-20T02:18:07;100160.13;;;9.28;83.83
24422;BME280;12600;53.326;-6.298;2022-11-20T02:21:03;100160.91;;;9.29;84.10
24422;BME280;12600;53.326;-6.298;2022-11-20T02:24:05;100182.72;;;9.29;84.08
24422;BME280;12600;53.326;-6.298;2022-11-20T02:27:00;100176.34;;;9.33;84.12
24422;BME280;12600;53.326;-6.298;2022-11-20T02:29:53;100179.25;;;9.37;83.75
24422;BME280;12600;53.326;-6.298;2022-11-20T02:32:44;100184.22;;;9.35;83.76
24422;BME280;12600;53.326;-6.298;2022-11-20T02:35:45;100179.25;;;9.37;83.43
24422;BME280;12600;53.326;-6.298;2022-11-20T02:38:35;100174.59;;;9.37;83.31
24422;BME280;12600;53.326;-6.298;2022-11-20T02:41:36;100171.56;;;9.39;83.02
24422;BME280;12600;53.326;-6.298;2022-11-20T02:44:26;100164.91;;;9.22;82.14
24422;BME280;12600;53.326;-6.298;2022-11-20T02:47:15;100158.81;;;9.25;81.81
24422;BME280;12600;53.326;-6.298;2022-11-20T02:50:05;100153.53;;;9.29;81.84
24422;BME280;12600;53.326;-6.298;2022-11-20T02:52:55;100150.31;;;9.27;81.12
24422;BME280;12600;53.326;-6.298;2022-11-20T02:55:44;100152.69;;;9.20;81.32
24422;BME280;12600;53.326;-6.298;2022-11-20T02:58:35;100158.78;;;9.17;80.86
24422;BME280;12600;53.326;-6.298;2022-11-20T03:01:24;100164.13;;;9.00;81.22
24422;BME280;12600;53.326;-6.298;2022-11-20T03:04:14;100161.69;;;8.98;81.30
24422;BME280;12600;53.326;-6.298;2022-11-20T03:07:03;100163.75;;;8.92;81.43
24422;BME280;12600;53.326;-6.298;2022-11-20T03:09:53;100150.88;;;8.84;81.60
24422;BME280;12600;53.326;-6.298;2022-11-20T03:12:42;100153.72;;;8.79;81.38
24422;BME280;12600;53.326;-6.298;2022-11-20T03:15:33;100167.09;;;8.67;81.42
24422;BME280;12600;53.326;-6.298;2022-11-20T03:18:22;100153.41;;;8.58;81.50
24422;BME280;12600;53.326;-6.298;2022-11-20T03:21:13;100158.22;;;8.61;80.68
24422;BME280;12600;53.326;-6.298;2022-11-20T03:24:03;100156.19;;;8.67;81.03
24422;BME280;12600;53.326;-6.298;2022-11-20T03:26:52;100151.16;;;8.60;80.69
24422;BME280;12600;53.326;-6.298;2022-11-20T03:29:41;100135.00;;;8.64;80.18
24422;BME280;12600;53.326;-6.298;2022-11-20T03:32:32;100123.50;;;8.67;80.23
24422;BME280;12600;53.326;-6.298;2022-11-20T03:35:22;100113.03;;;8.60;80.25
24422;BME280;12600;53.326;-6.298;2022-11-20T03:38:11;100120.00;;;8.66;80.31
24422;BME280;12600;53.326;-6.298;2022-11-20T03:41:02;100118.97;;;8.62;80.38
24422;BME280;12600;53.326;-6.298;2022-11-20T03:43:54;100121.28;;;8.69;80.16
24422;BME280;12600;53.326;-6.298;2022-11-20T03:46:43;100118.06;;;8.67;79.92
24422;BME280;12600;53.326;-6.298;2022-11-20T03:49:34;100125.91;;;8.68;79.80
24422;BME280;12600;53.326;-6.298;2022-11-20T03:52:23;100118.06;;;8.67;79.58
24422;BME280;12600;53.326;-6.298;2022-11-20T03:55:13;100133.78;;;8.70;79.92
24422;BME280;12600;53.326;-6.298;2022-11-20T03:58:02;100129.44;;;8.69;79.47
24422;BME280;12600;53.326;-6.298;2022-11-20T04:00:51;100133.09;;;8.64;79.27
24422;BME280;12600;53.326;-6.298;2022-11-20T04:03:42;100116.31;;;8.71;79.51
24422;BME280;12600;53.326;-6.298;2022-11-20T04:06:37;100120.97;;;8.71;79.03
24422;BME280;12600;53.326;-6.298;2022-11-20T04:09:27;100125.28;;;8.72;78.97
24422;BME280;12600;53.326;-6.298;2022-11-20T04:12:16;100128.22;;;8.75;78.73
24422;BME280;12600;53.326;-6.298;2022-11-20T04:15:06;100125.50;;;8.75;78.43
24422;BME280;12600;53.326;-6.298;2022-11-20T04:17:55;100115.25;;;8.81;78.17
24422;BME280;12600;53.326;-6.298;2022-11-20T04:20:45;100101.63;;;8.81;77.83
24422;BME280;12600;53.326;-6.298;2022-11-20T04:23:35;100113.78;;;8.75;77.76
24422;BME280;12600;53.326;-6.298;2022-11-20T04:26:27;100125.34;;;8.80;77.78
24422;BME280;12600;53.326;-6.298;2022-11-20T04:29:16;100122.88;;;8.70;78.28
24422;BME280;12600;53.326;-6.298;2022-11-20T04:32:06;100135.28;;;8.76;78.46
24422;BME280;12600;53.326;-6.298;2022-11-20T04:34:56;100134.75;;;8.74;78.99
24422;BME280;12600;53.326;-6.298;2022-11-20T04:37:45;100146.66;;;8.78;79.02
24422;BME280;12600;53.326;-6.298;2022-11-20T04:40:36;100144.41;;;8.80;79.48
24422;BME280;12600;53.326;-6.298;2022-11-20T04:43:26;100140.41;;;8.78;79.25
24422;BME280;12600;53.326;-6.298;2022-11-20T04:46:17;100146.28;;;8.71;79.43
24422;BME280;12600;53.326;-6.298;2022-11-20T04:49:07;100152.03;;;8.69;79.99
24422;BME280;12600;53.326;-6.298;2022-11-20T04:51:57;100162.72;;;8.66;79.95
24422;BME280;12600;53.326;-6.298;2022-11-20T04:54:47;100157.16;;;8.71;79.34
24422;BME280;12600;53.326;-6.298;2022-11-20T04:57:37;100163.09;;;8.51;80.27
24422;BME280;12600;53.326;-6.298;2022-11-20T05:00:27;100165.09;;;8.59;79.81
24422;BME280;12600;53.326;-6.298;2022-11-20T05:03:16;100159.75;;;8.54;80.20
24422;BME280;12600;53.326;-6.298;2022-11-20T05:06:07;100162.00;;;8.52;79.78
24422;BME280;12600;53.326;-6.298;2022-11-20T05:08:57;100154.72;;;8.47;80.16
24422;BME280;12600;53.326;-6.298;2022-11-20T05:11:46;100173.84;;;8.56;79.82
24422;BME280;12600;53.326;-6.298;2022-11-20T05:14:39;100180.09;;;8.56;79.70
24422;BME280;12600;53.326;-6.298;2022-11-20T05:17:29;100179.31;;;8.56;79.89
24422;BME280;12600;53.326;-6.298;2022-11-20T05:20:19;100190.31;;;8.51;80.08
24422;BME280;12600;53.326;-6.298;2022-11-20T05:23:08;100186.19;;;8.53;79.75
24422;BME280;12600;53.326;-6.298;2022-11-20T05:25:58;100184.50;;;8.44;80.01
24422;BME280;12600;53.326;-6.298;2022-11-20T05:28:48;100183.56;;;8.48;79.62
24422;BME280;12600;53.326;-6.298;2022-11-20T05:31:40;100190.91;;;8.48;79.61
24422;BME280;12600;53.326;-6.298;2022-11-20T05:34:29;100185.63;;;8.43;79.40
24422;BME280;12600;53.326;-6.298;2022-11-20T05:37:19;100186.41;;;8.43;79.54
24422;BME280;12600;53.326;-6.298;2022-11-20T05:40:10;100178.53;;;8.41;79.49
24422;BME280;12600;53.326;-6.298;2022-11-20T05:43:00;100175.22;;;8.45;78.92
24422;BME280;12600;53.326;-6.298;2022-11-20T05:45:53;100170.25;;;8.47;78.76
24422;BME280;12600;53.326;-6.298;2022-11-20T05:48:45;100179.06;;;8.44;78.73
24422;BME280;12600;53.326;-6.298;2022-11-20T05:51:35;100182.69;;;8.39;78.62
24422;BME280;12600;53.326;-6.298;2022-11-20T05:54:24;100180.97;;;8.29;78.80
24422;BME280;12600;53.326;-6.298;2022-11-20T05:57:14;100181.13;;;8.33;78.80
24422;BME280;12600;53.326;-6.298;2022-11-20T06:00:04;100180.66;;;8.31;79.42
24422;BME280;12600;53.326;-6.298;2022-11-20T06:02:54;100183.69;;;8.29;79.59
24422;BME280;12600;53.326;-6.298;2022-11-20T06:05:45;100177.22;;;8.25;79.65
24422;BME280;12600;53.326;-6.298;2022-11-20T06:08:34;100158.16;;;8.25;79.59
24422;BME280;12600;53.326;-6.298;2022-11-20T06:11:24;100155.56;;;8.20;79.59
24422;BME280;12600;53.326;-6.298;2022-11-20T06:14:14;100154.47;;;8.21;79.49
24422;BME280;12600;53.326;-6.298;2022-11-20T06:17:03;100150.00;;;8.25;79.46
24422;BME280;12600;53.326;-6.298;2022-11-20T06:19:53;100146.19;;;8.26;78.94
24422;BME280;12600;53.326;-6.298;2022-11-20T06:22:44;100136.28;;;8.30;78.76
24422;BME280;12600;53.326;-6.298;2022-11-20T06:25:34;100124.44;;;8.26;78.60
24422;BME280;12600;53.326;-6.298;2022-11-20T06:28:25;100133.25;;;8.32;78.54
24422;BME280;12600;53.326;-6.298;2022-11-20T06:31:17;100130.38;;;8.28;78.39
24422;BME280;12600;53.326;-6.298;2022-11-20T06:34:07;100125.91;;;8.32;78.51
24422;BME280;12600;53.326;-6.298;2022-11-20T06:36:57;100128.63;;;8.32;78.24
24422;BME280;12600;53.326;-6.298;2022-11-20T06:39:48;100131.56;;;8.22;78.18
24422;BME280;12600;53.326;-6.298;2022-11-20T06:42:37;100127.81;;;8.32;77.99
24422;BME280;12600;53.326;-6.298;2022-11-20T06:45:26;100130.22;;;8.33;78.10
24422;BME280;12600;53.326;-6.298;2022-11-20T06:48:16;100120.47;;;8.32;78.09
24422;BME280;12600;53.326;-6.298;2022-11-20T06:51:06;100119.97;;;8.30;77.98
24422;BME280;12600;53.326;-6.298;2022-11-20T06:53:56;100134.00;;;8.37;78.12
24422;BME280;12600;53.326;-6.298;2022-11-20T06:56:48;100123.91;;;8.38;78.22
24422;BME280;12600;53.326;-6.298;2022-11-20T06:59:37;100122.47;;;8.40;77.95
24422;BME280;12600;53.326;-6.298;2022-11-20T07:02:27;100129.53;;;8.41;77.77
24422;BME280;12600;53.326;-6.298;2022-11-20T07:05:16;100129.84;;;8.40;77.90
24422;BME280;12600;53.326;-6.298;2022-11-20T07:08:06;100121.34;;;8.41;77.56
24422;BME280;12600;53.326;-6.298;2022-11-20T07:10:58;100127.44;;;8.38;77.91
24422;BME280;12600;53.326;-6.298;2022-11-20T07:13:49;100125.50;;;8.39;77.86
24422;BME280;12600;53.326;-6.298;2022-11-20T07:16:38;100115.00;;;8.32;77.78
24422;BME280;12600;53.326;-6.298;2022-11-20T07:19:28;100114.69;;;8.48;77.75
24422;BME280;12600;53.326;-6.298;2022-11-20T07:22:17;100113.72;;;8.44;77.68
24422;BME280;12600;53.326;-6.298;2022-11-20T07:25:10;100106.84;;;8.46;77.55
24422;BME280;12600;53.326;-6.298;2022-11-20T07:28:00;100106.34;;;8.44;77.41
24422;BME280;12600;53.326;-6.298;2022-11-20T07:30:52;100106.72;;;8.51;77.11
24422;BME280;12600;53.326;-6.298;2022-11-20T07:33:42;100112.97;;;8.52;76.74
24422;BME280;12600;53.326;-6.298;2022-11-20T07:36:31;100120.41;;;8.60;76.65
24422;BME280;12600;53.326;-6.298;2022-11-20T07:39:21;100123.63;;;8.62;76.55
24422;BME280;12600;53.326;-6.298;2022-11-20T07:42:11;100129.06;;;8.62;76.37
24422;BME280;12600;53.326;-6.298;2022-11-20T07:45:00;100125.53;;;8.61;76.13
24422;BME280;12600;53.326;-6.298;2022-11-20T07:47:51;100134.09;;;8.68;76.11
24422;BME280;12600;53.326;-6.298;2022-11-20T07:50:41;100124.00;;;8.69;75.71
24422;BME280;12600;53.326;-6.298;2022-11-20T07:53:30;100105.91;;;8.73;75.29
24422;BME280;12600;53.326;-6.298;2022-11-20T07:56:20;100116.56;;;8.83;75.01
24422;BME280;12600;53.326;-6.298;2022-11-20T07:59:09;100107.59;;;8.83;74.59
24422;BME280;12600;53.326;-6.298;2022-11-20T08:01:59;100104.41;;;8.89;74.27
24422;BME280;12600;53.326;-6.298;2022-11-20T08:04:50;100097.19;;;8.85;74.19
24422;BME280;12600;53.326;-6.298;2022-11-20T08:07:41;100117.44;;;8.92;74.53
24422;BME280;12600;53.326;-6.298;2022-11-20T08:10:30;100110.88;;;8.93;74.79
24422;BME280;12600;53.326;-6.298;2022-11-20T08:13:20;100103.19;;;8.95;75.08
24422;BME280;12600;53.326;-6.298;2022-11-20T08:16:26;100100.19;;;9.06;74.94
24422;BME280;12600;53.326;-6.298;2022-11-20T08:19:17;100098.53;;;8.96;75.07
24422;BME280;12600;53.326;-6.298;2022-11-20T08:22:09;100119.72;;;8.99;74.93
24422;BME280;12600;53.326;-6.298;2022-11-20T08:24:58;100087.94;;;8.94;75.42
24422;BME280;12600;53.326;-6.298;2022-11-20T08:27:48;100107.69;;;9.00;75.14
24422;BME280;12600;53.326;-6.298;2022-11-20T08:30:37;100089.91;;;9.03;75.11
24422;BME280;12600;53.326;-6.298;2022-11-20T08:33:27;100082.63;;;8.89;75.69
24422;BME280;12600;53.326;-6.298;2022-11-20T08:36:19;100083.78;;;8.97;74.91
24422;BME280;12600;53.326;-6.298;2022-11-20T08:39:13;100101.19;;;9.10;74.19
24422;BME280;12600;53.326;-6.298;2022-11-20T08:42:07;100106.00;;;9.13;74.48
24422;BME280;12600;53.326;-6.298;2022-11-20T08:44:56;100109.88;;;9.20;73.88
24422;BME280;12600;53.326;-6.298;2022-11-20T08:47:46;100117.94;;;9.25;73.93
24422;BME280;12600;53.326;-6.298;2022-11-20T08:50:35;100122.91;;;9.23;73.97
24422;BME280;12600;53.326;-6.298;2022-11-20T08:53:25;100121.94;;;9.28;73.86
24422;BME280;12600;53.326;-6.298;2022-11-20T08:56:16;100107.47;;;9.19;73.69
24422;BME280;12600;53.326;-6.298;2022-11-20T08:59:06;100106.03;;;9.21;73.38
24422;BME280;12600;53.326;-6.298;2022-11-20T09:02:15;100104.09;;;9.22;73.46
24422;BME280;12600;53.326;-6.298;2022-11-20T09:05:05;100090.47;;;9.22;73.36
24422;BME280;12600;53.326;-6.298;2022-11-20T09:07:56;100118.41;;;9.28;73.25
24422;BME280;12600;53.326;-6.298;2022-11-20T09:10:46;100085.66;;;9.19;73.47
24422;BME280;12600;53.326;-6.298;2022-11-20T09:13:41;100073.44;;;9.08;73.45
24422;BME280;12600;53.326;-6.298;2022-11-20T09:16:30;100080.19;;;9.10;73.65
24422;BME280;12600;53.326;-6.298;2022-11-20T09:19:19;100065.44;;;9.11;73.50
24422;BME280;12600;53.326;-6.298;2022-11-20T09:22:24;100068.00;;;9.08;73.49
24422;BME280;12600;53.326;-6.298;2022-11-20T09:25:13;100059.50;;;9.09;73.35
24422;BME280;12600;53.326;-6.298;2022-11-20T09:28:03;100062.53;;;9.08;73.60
24422;BME280;12600;53.326;-6.298;2022-11-20T09:30:54;100038.66;;;9.13;73.53
24422;BME280;12600;53.326;-6.298;2022-11-20T09:33:43;100039.31;;;9.10;73.50
24422;BME280;12600;53.326;-6.298;2022-11-20T09:36:33;100039.19;;;9.15;73.36
24422;BME280;12600;53.326;-6.298;2022-11-20T09:39:22;100034.53;;;9.16;73.65
24422;BME280;12600;53.326;-6.298;2022-11-20T09:42:28;100026.50;;;9.19;73.12
24422;BME280;12600;53.326;-6.298;2022-11-20T09:45:29;100025.34;;;9.12;73.45
24422;BME280;12600;53.326;-6.298;2022-11-20T09:48:45;100024.78;;;9.23;73.27
24422;BME280;12600;53.326;-6.298;2022-11-20T09:51:46;100028.78;;;9.26;73.48
24422;BME280;12600;53.326;-6.298;2022-11-20T09:54:39;100031.66;;;9.30;73.38
24422;BME280;12600;53.326;-6.298;2022-11-20T09:57:35;100030.06;;;9.29;73.53
24422;BME280;12600;53.326;-6.298;2022-11-20T10:00:25;100031.38;;;9.31;73.54
24422;BME280;12600;53.326;-6.298;2022-11-20T10:03:21;100038.44;;;9.32;73.50
24422;BME280;12600;53.326;-6.298;2022-11-20T10:06:20;100051.25;;;9.32;73.25
24422;BME280;12600;53.326;-6.298;2022-11-20T10:09:21;100049.34;;;9.32;73.17
24422;BME280;12600;53.326;-6.298;2022-11-20T10:12:19;100048.72;;;9.44;72.57
24422;BME280;12600;53.326;-6.298;2022-11-20T10:15:27;100041.84;;;9.46;72.11
24422;BME280;12600;53.326;-6.298;2022-11-20T10:18:31;100037.06;;;9.61;72.40
24422;BME280;12600;53.326;-6.298;2022-11-20T10:21:35;100049.25;;;9.55;72.64
24422;BME280;12600;53.326;-6.298;2022-11-20T10:24:42;100047.63;;;9.53;72.84
24422;BME280;12600;53.326;-6.298;2022-11-20T10:27:42;100043.47;;;9.56;72.81
24422;BME280;12600;53.326;-6.298;2022-11-20T10:30:40;100046.66;;;9.49;72.48
24422;BME280;12600;53.326;-6.298;2022-11-20T10:33:33;100066.91;;;9.66;72.37
24422;BME280;12600;53.326;-6.298;2022-11-20T10:36:52;100065.63;;;9.55;72.19
24422;BME280;12600;53.326;-6.298;2022-11-20T10:39:49;100048.94;;;9.56;71.72
24422;BME280;12600;53.326;-6.298;2022-11-20T10:42:46;100066.22;;;9.51;72.35
24422;BME280;12600;53.326;-6.298;2022-11-20T10:45:50;100063.03;;;9.49;72.50
24422;BME280;12600;53.326;-6.298;2022-11-20T10:48:43;100073.94;;;9.49;72.71
24422;BME280;12600;53.326;-6.298;2022-11-20T10:51:40;100093.69;;;9.55;72.66
24422;BME280;12600;53.326;-6.298;2022-11-20T10:54:43;100092.22;;;9.49;73.32
24422;BME280;12600;53.326;-6.298;2022-11-20T10:57:52;100083.41;;;9.61;73.42
24422;BME280;12600;53.326;-6.298;2022-11-20T11:00:43;100093.50;;;9.51;73.91
24422;BME280;12600;53.326;-6.298;2022-11-20T11:03:33;100113.63;;;9.64;74.11
24422;BME280;12600;53.326;-6.298;2022-11-20T11:06:29;100106.00;;;9.52;74.01
24422;BME280;12600;53.326;-6.298;2022-11-20T11:09:34;100116.09;;;9.43;74.26
24422;BME280;12600;53.326;-6.298;2022-11-20T11:12:28;100118.41;;;9.67;73.98
24422;BME280;12600;53.326;-6.298;2022-11-20T11:15:27;100100.44;;;9.58;73.44
24422;BME280;12600;53.326;-6.298;2022-11-20T11:18:27;100135.63;;;9.85;72.80
24422;BME280;12600;53.326;-6.298;2022-11-20T11:21:24;100133.41;;;9.87;72.03
24422;BME280;12600;53.326;-6.298;2022-11-20T11:24:21;100133.09;;;9.89;71.48
24422;BME280;12600;53.326;-6.298;2022-11-20T11:27:30;100133.25;;;9.84;70.16
24422;BME280;12600;53.326;-6.298;2022-11-20T11:30:20;100122.75;;;10.34;69.94
24422;BME280;12600;53.326;-6.298;2022-11-20T11:33:12;100112.44;;;11.00;66.53
24422;BME280;12600;53.326;-6.298;2022-11-20T11:36:19;100110.09;;;12.04;64.75
24422;BME280;12600;53.326;-6.298;2022-11-20T11:39:15;100113.66;;;12.47;60.22
24422;BME280;12600;53.326;-6.298;2022-11-20T11:42:13;100119.16;;;13.13;59.83
24422;BME280;12600;53.326;-6.298;2022-11-20T11:45:12;100111.34;;;13.24;57.20
24422;BME280;12600;53.326;-6.298;2022-11-20T11:48:09;100114.13;;;13.48;55.92
24422;BME280;12600;53.326;-6.298;2022-11-20T11:50:58;100132.16;;;13.37;55.52
24422;BME280;12600;53.326;-6.298;2022-11-20T11:53:47;100124.09;;;13.20;56.82
24422;BME280;12600;53.326;-6.298;2022-11-20T11:56:37;100147.78;;;12.49;58.84
24422;BME280;12600;53.326;-6.298;2022-11-20T11:59:31;100136.78;;;12.08;61.79
24422;BME280;12600;53.326;-6.298;2022-11-20T12:02:36;100143.47;;;11.98;63.41
24422;BME280;12600;53.326;-6.298;2022-11-20T12:05:30;100130.66;;;12.11;63.65
24422;BME280;12600;53.326;-6.298;2022-11-20T12:08:25;100141.59;;;12.11;62.97
24422;BME280;12600;53.326;-6.298;2022-11-20T12:11:21;100136.09;;;12.19;62.83
24422;BME280;12600;53.326;-6.298;2022-11-20T12:14:17;100152.44;;;12.07;62.53
24422;BME280;12600;53.326;-6.298;2022-11-20T12:17:13;100132.91;;;11.88;62.55
24422;BME280;12600;53.326;-6.298;2022-11-20T12:20:11;100130.97;;;11.80;62.21
24422;BME280;12600;53.326;-6.298;2022-11-20T12:23:09;100132.75;;;11.75;61.65
24422;BME280;12600;53.326;-6.298;2022-11-20T12:26:13;100119.41;;;11.74;60.66
24422;BME280;12600;53.326;-6.298;2022-11-20T12:29:14;100127.38;;;11.96;60.27
24422;BME280;12600;53.326;-6.298;2022-11-20T12:32:35;100122.53;;;11.93;59.86
24422;BME280;12600;53.326;-6.298;2022-11-20T12:35:44;100134.41;;;12.06;59.58
24422;BME280;12600;53.326;-6.298;2022-11-20T12:39:01;100128.94;;;12.27;59.31
24422;BME280;12600;53.326;-6.298;2022-11-20T12:49:23;100138.84;;;12.61;58.61
24422;BME280;12600;53.326;-6.298;2022-11-20T12:52:37;100147.44;;;12.51;58.83
24422;BME280;12600;53.326;-6.298;2022-11-20T12:55:45;100141.31;;;12.54;58.92
24422;BME280;12600;53.326;-6.298;2022-11-20T12:58:44;100145.25;;;12.44;59.02
24422;BME280;12600;53.326;-6.298;2022-11-20T13:01:43;100157.81;;;12.66;59.04
24422;BME280;12600;53.326;-6.298;2022-11-20T13:08:21;100145.31;;;12.77;58.25
24422;BME280;12600;53.326;-6.298;2022-11-20T13:11:17;100132.06;;;12.79;56.74
24422;BME280;12600;53.326;-6.298;2022-11-20T13:14:23;100138.50;;;12.83;57.27
24422;BME280;12600;53.326;-6.298;2022-11-20T13:17:22;100144.03;;;12.75;57.17
24422;BME280;12600;53.326;-6.298;2022-11-20T13:20:16;100153.25;;;12.49;58.36
24422;BME280;12600;53.326;-6.298;2022-11-20T13:23:06;100160.31;;;12.09;58.82
24422;BME280;12600;53.326;-6.298;2022-11-20T13:26:17;100155.91;;;11.78;59.74
24422;BME280;12600;53.326;-6.298;2022-11-20T13:29:12;100167.66;;;11.40;61.31
24422;BME280;12600;53.326;-6.298;2022-11-20T13:32:12;100165.25;;;11.30;61.84
24422;BME280;12600;53.326;-6.298;2022-11-20T13:35:04;100170.44;;;11.14;61.65
24422;BME280;12600;53.326;-6.298;2022-11-20T13:38:06;100150.19;;;11.07;61.17
24422;BME280;12600;53.326;-6.298;2022-11-20T13:40:58;100151.50;;;11.09;60.71
24422;BME280;12600;53.326;-6.298;2022-11-20T13:44:21;100155.19;;;11.05;60.64
24422;BME280;12600;53.326;-6.298;2022-11-20T13:47:21;100174.66;;;11.03;60.44
24422;BME280;12600;53.326;-6.298;2022-11-20T13:50:14;100175.31;;;11.00;59.89
24422;BME280;12600;53.326;-6.298;2022-11-20T13:53:15;100175.94;;;10.97;59.49
24422;BME280;12600;53.326;-6.298;2022-11-20T13:56:21;100176.28;;;10.87;59.84
24422;BME280;12600;53.326;-6.298;2022-11-20T13:59:32;100180.47;;;10.84;59.26
24422;BME280;12600;53.326;-6.298;2022-11-20T14:02:28;100183.00;;;10.98;59.50
24422;BME280;12600;53.326;-6.298;2022-11-20T14:05:22;100182.53;;;10.96;58.95
24422;BME280;12600;53.326;-6.298;2022-11-20T14:08:17;100162.91;;;11.11;58.71
24422;BME280;12600;53.326;-6.298;2022-11-20T14:11:16;100171.25;;;11.06;57.68
24422;BME280;12600;53.326;-6.298;2022-11-20T14:14:17;100185.56;;;11.12;57.27
24422;BME280;12600;53.326;-6.298;2022-11-20T14:17:08;100185.72;;;11.07;56.94
24422;BME280;12600;53.326;-6.298;2022-11-20T14:20:11;100198.94;;;10.96;57.30
24422;BME280;12600;53.326;-6.298;2022-11-20T14:23:02;100188.19;;;10.91;57.48
24422;BME280;12600;53.326;-6.298;2022-11-20T14:25:53;100193.47;;;10.87;57.74
24422;BME280;12600;53.326;-6.298;2022-11-20T14:28:42;100197.19;;;10.83;57.78
24422;BME280;12600;53.326;-6.298;2022-11-20T14:31:33;100217.94;;;10.75;58.61
24422;BME280;12600;53.326;-6.298;2022-11-20T14:34:25;100217.41;;;10.73;59.02
24422;BME280;12600;53.326;-6.298;2022-11-20T14:37:21;100193.47;;;10.70;59.53
24422;BME280;12600;53.326;-6.298;2022-11-20T14:40:25;100211.16;;;10.64;60.22
24422;BME280;12600;53.326;-6.298;2022-11-20T14:43:23;100219.66;;;10.62;60.83
24422;BME280;12600;53.326;-6.298;2022-11-20T14:46:13;100205.19;;;10.53;61.92
24422;BME280;12600;53.326;-6.298;2022-11-20T14:49:04;100196.53;;;10.51;62.24
24422;BME280;12600;53.326;-6.298;2022-11-20T14:52:01;100207.44;;;10.43;62.90
24422;BME280;12600;53.326;-6.298;2022-11-20T14:54:53;100193.63;;;10.56;62.51
24422;BME280;12600;53.326;-6.298;2022-11-20T14:57:43;100198.59;;;10.46;63.41
24422;BME280;12600;53.326;-6.298;2022-11-20T15:00:34;100192.66;;;10.44;63.45
24422;BME280;12600;53.326;-6.298;2022-11-20T15:03:32;100201.47;;;10.41;64.24
24422;BME280;12600;53.326;-6.298;2022-11-20T15:06:26;100201.66;;;10.44;64.33
24422;BME280;12600;53.326;-6.298;2022-11-20T15:09:16;100220.25;;;10.42;65.13
24422;BME280;12600;53.326;-6.298;2022-11-20T15:12:18;100213.03;;;10.38;66.00
24422;BME280;12600;53.326;-6.298;2022-11-20T15:15:11;100212.38;;;10.23;66.03